LFPOLPPS

Guest
Details From LFPO - Paris Orly
To LPPS - Porto Santo
Flight Number -
Tags Generated
Created
Modified
Stats Distance 1,260 nm / 2,333 km
Max Altitude 0 ft / 0 m
Waypoints 6
Social Downloads 3
Likes 0
Share VATSIM

Download

Looking for another format? Having issues loading an existing format? Contact us
Advertisement - Login to hide

Notes

Generated

Route

LFPO LEBRI KORET VABEM SNT LPPS

ID Type Via Altitude Latitude Longitude Leg Dist Tot Dist Heading (true) Name
O LFPO APT - 0 ft / 0 m 48.71772˚ 2.37681˚ - 0 nm - -
LEBRI FIX - 0 ft / 0 m 45.81111˚ -2.53361˚ 265 nm 265 nm 231° / 227° -
KORET FIX - 0 ft / 0 m 42.79763˚ -6.55014˚ 250 nm 515 nm 225° / 222° -
VABEM FIX - 0 ft / 0 m 36.54917˚ -13.32278˚ 488 nm 1003 nm 222° / 218° -
SNT VOR - 0 ft / 0 m 33.09028˚ -16.35056˚ 255 nm 1259 nm 217° / 215° PORTO SANTO VOR-DME
O LPPS APT - 0 ft / 0 m 33.08696˚ -16.35048˚ 0 nm 1259 nm 179° / 179° -

Altitude Profile

Advertisement - Login to hide

Weather


0- 5 10 15 20 25 30 35+ Temperature / ° C

Clouds and Precipitation
Forecast for 2017-12-18 06:00 UTC. Updated 30 minutes ago

Ground ~20,000 ft ~40,000 ft Winds

LFPO

Details ICAO LFPO (ORY)
Name Paris Orly
Region France
Timezone Europe/Paris (UTC+1.0)
Stats Elevation 291 ft / 89 m (AMSL)
Location 48.726360° 2.367029°
Runways 3
Magnetic Variation 0.601° E

METAR

LFPO 180530Z 34007KT 9999 FEW008 BKN010 BKN044 09/07 Q1021 BECMG BKN020

Decode

TAF

TAF LFPO 172300Z 1800/1906 22010KT 9999 BKN008 TEMPO 1800/1805 21014G24KT 2000 -RADZ BKN003 BECMG 1806/1808 34010KT BKN018 BECMG 1900/1902 BKN008 TEMPO 1902/1906 4000 BR BKN003

Decode

Departure Runways

ID Width Length Bearing (true) Bearing (mag) Surface Threshold Offset Overrun Length
02 197 ft / 60 m 7,873 ft / 2,400 m 18.29° 17.69° Concrete 0 ft / 0 m 0 ft / 0 m
06 148 ft / 45 m 11,952 ft / 3,643 m 61.78° 61.18° Asphalt 984 ft / 300 m 197 ft / 60 m
08 148 ft / 45 m 10,868 ft / 3,313 m 74.36° 73.76° Concrete 0 ft / 0 m 1,050 ft / 320 m
20 197 ft / 60 m 7,873 ft / 2,400 m 198.30° 197.70° Concrete 0 ft / 0 m 0 ft / 0 m
24 148 ft / 45 m 11,952 ft / 3,643 m 241.81° 241.21° Asphalt 0 ft / 0 m 197 ft / 60 m
26 148 ft / 45 m 10,868 ft / 3,313 m 254.39° 253.79° Concrete 1,427 ft / 435 m 0 ft / 0 m

LPPS

Details ICAO LPPS (PXO)
Name Porto Santo
Region Portugal
Timezone Atlantic/Madeira (UTC+0.0)
Stats Elevation 340 ft / 104 m (AMSL)
Location 33.073413° -16.349946°
Runways 1
Magnetic Variation 4.818° W

METAR

LPPS 180530Z 06011KT 030V090 9999 SCT015 BKN030 16/08 Q1029

Decode

TAF

TAF LPPS 172300Z 1800/1906 06013KT 9999 SCT015 BKN030

Decode

Destination Runways

ID Width Length Bearing (true) Bearing (mag) Surface Threshold Offset Overrun Length
18 148 ft / 45 m 9,890 ft / 3,014 m 178.11° 182.93° Asphalt 0 ft / 0 m 0 ft / 0 m
36 148 ft / 45 m 9,890 ft / 3,014 m 358.12° 2.94° Asphalt 0 ft / 0 m 499 ft / 152 m